createdAt,value
2017-07-28T00:00:42.751Z,75.1
2017-07-28T00:01:44.130Z,75.3
2017-07-28T00:02:45.508Z,75.1
2017-07-28T00:03:46.923Z,75.3
2017-07-28T00:04:48.301Z,74.9
2017-07-28T00:05:49.683Z,74.1
2017-07-28T00:07:32.064Z,75.1
2017-07-28T00:08:33.429Z,74.3
2017-07-28T00:09:34.806Z,74.2
2017-07-28T00:10:36.182Z,74.2
2017-07-28T00:11:37.581Z,74.4
2017-07-28T00:12:38.959Z,74.1
2017-07-28T00:13:40.339Z,73.5
2017-07-28T00:14:41.719Z,73.9
2017-07-28T00:15:43.090Z,74.3
2017-07-28T00:16:44.468Z,73.8
2017-07-28T00:17:45.845Z,73.9
2017-07-28T00:18:47.228Z,74.7
2017-07-28T00:19:48.609Z,75.0
2017-07-28T00:20:49.997Z,75.0
2017-07-28T00:21:51.376Z,75.3
2017-07-28T00:22:52.757Z,75.7
2017-07-28T00:24:35.181Z,75.0
2017-07-28T00:25:36.571Z,74.9
2017-07-28T00:26:37.953Z,74.7
2017-07-28T00:27:39.329Z,75.1
2017-07-28T00:28:40.713Z,74.8
2017-07-28T00:29:42.100Z,76.2
2017-07-28T00:30:43.478Z,76.5
2017-07-28T00:31:44.854Z,76.7
2017-07-28T00:32:46.235Z,76.8
2017-07-28T00:33:47.619Z,77.6
2017-07-28T00:34:48.987Z,76.8
2017-07-28T00:35:50.367Z,77.6
2017-07-28T00:36:51.744Z,76.8
2017-07-28T00:37:53.121Z,75.8
2017-07-28T00:39:35.516Z,76.6
2017-07-28T00:40:36.903Z,75.0
2017-07-28T00:41:38.271Z,75.1
2017-07-28T00:42:39.649Z,75.2
2017-07-28T00:43:41.029Z,75.8
2017-07-28T00:44:42.408Z,75.2
2017-07-28T00:45:43.787Z,74.9
2017-07-28T00:46:45.162Z,75.1
2017-07-28T00:47:46.538Z,75.3
2017-07-28T00:48:47.915Z,75.6
2017-07-28T00:49:49.291Z,76.4
2017-07-28T00:50:50.670Z,76.2
2017-07-28T00:51:52.051Z,75.9
2017-07-28T00:52:53.434Z,76.2
2017-07-28T00:53:54.813Z,76.3
2017-07-28T00:54:56.192Z,76.2
2017-07-28T00:55:57.567Z,75.3
2017-07-28T00:56:58.943Z,76.2
2017-07-28T00:58:00.321Z,74.7
2017-07-28T00:59:01.702Z,74.0
2017-07-28T01:00:03.086Z,74.6
2017-07-28T01:01:04.469Z,74.9
2017-07-28T01:02:05.845Z,75.1
2017-07-28T01:03:07.232Z,76.8
2017-07-28T01:04:08.618Z,76.2
2017-07-28T01:05:09.999Z,76.8
2017-07-28T01:06:11.374Z,76.1
2017-07-28T01:07:52.779Z,76.8
2017-07-28T01:08:54.155Z,76.8
2017-07-28T01:10:17.154Z,77.6
2017-07-28T01:11:18.531Z,77.4
2017-07-28T01:12:19.904Z,78.1
2017-07-28T01:13:21.284Z,78.2
2017-07-28T01:14:22.664Z,78.1
2017-07-28T01:15:24.041Z,78.5
2017-07-28T01:16:25.418Z,79.1
2017-07-28T01:17:26.805Z,79.4
2017-07-28T01:19:09.180Z,78.7
2017-07-28T01:20:10.555Z,78.9
2017-07-28T01:21:11.929Z,79.3
2017-07-28T01:22:13.301Z,79.7
2017-07-28T01:23:14.680Z,78.7
2017-07-28T01:24:16.056Z,79.7
2017-07-28T01:25:17.449Z,79.7
2017-07-28T01:26:18.821Z,79.2
2017-07-28T01:27:20.200Z,78.6
2017-07-28T01:28:21.575Z,78.7
2017-07-28T01:29:22.952Z,80.1
2017-07-28T01:30:24.326Z,79.9
2017-07-28T01:31:25.711Z,79.1
2017-07-28T01:32:27.106Z,78.8
2017-07-28T01:33:28.470Z,80.0
2017-07-28T01:34:29.845Z,79.4
2017-07-28T01:35:31.222Z,79.2
2017-07-28T01:36:32.607Z,79.6
2017-07-28T01:37:33.985Z,79.7
2017-07-28T01:38:35.362Z,79.7
2017-07-28T01:39:36.731Z,80.5
2017-07-28T01:40:38.118Z,80.8
2017-07-28T01:41:39.494Z,80.8
2017-07-28T01:42:40.876Z,81.3
2017-07-28T01:43:42.263Z,80.7
2017-07-28T01:44:43.643Z,81.0
2017-07-28T01:45:45.024Z,81.8
2017-07-28T01:46:46.401Z,82.0
2017-07-28T01:47:47.789Z,81.7
2017-07-28T01:48:49.162Z,81.5
2017-07-28T01:49:50.542Z,81.7
2017-07-28T01:50:51.919Z,81.6
2017-07-28T01:51:53.303Z,81.5
2017-07-28T01:52:54.672Z,81.2
2017-07-28T01:53:56.050Z,82.3
2017-07-28T01:54:57.438Z,81.6
2017-07-28T01:55:58.810Z,82.2
2017-07-28T01:57:00.188Z,82.2
2017-07-28T01:58:01.564Z,82.2
2017-07-28T01:59:02.947Z,82.1
2017-07-28T02:00:04.331Z,81.7
2017-07-28T02:01:05.708Z,82.4
2017-07-28T02:02:07.085Z,82.0
2017-07-28T02:03:08.463Z,82.5
2017-07-28T02:04:09.855Z,82.4
2017-07-28T02:05:11.261Z,81.9
2017-07-28T02:06:12.650Z,81.8
2017-07-28T02:07:55.024Z,82.5
2017-07-28T02:08:56.396Z,82.9
2017-07-28T02:09:57.770Z,83.4
2017-07-28T02:10:59.146Z,83.4
2017-07-28T02:12:00.532Z,83.3
2017-07-28T02:13:01.911Z,83.3
2017-07-28T02:14:03.287Z,83.3
2017-07-28T02:15:04.673Z,83.1
2017-07-28T02:16:06.049Z,82.9
2017-07-28T02:17:07.426Z,83.0
2017-07-28T02:18:08.804Z,82.6
2017-07-28T02:19:10.183Z,83.2
2017-07-28T02:20:11.563Z,82.3
2017-07-28T02:21:12.943Z,82.9
2017-07-28T02:22:14.330Z,82.9
2017-07-28T02:23:15.711Z,82.9
2017-07-28T02:24:17.079Z,82.4
2017-07-28T02:25:18.456Z,82.4
2017-07-28T02:26:19.844Z,82.8
2017-07-28T02:27:21.218Z,82.0
2017-07-28T02:28:22.596Z,82.6
2017-07-28T02:29:23.974Z,82.3
2017-07-28T02:30:25.349Z,82.1
2017-07-28T02:31:26.728Z,81.6
2017-07-28T02:32:28.104Z,82.1
2017-07-28T02:33:29.492Z,82.2
2017-07-28T02:34:30.872Z,82.3
2017-07-28T02:35:32.246Z,81.8
2017-07-28T02:36:33.630Z,81.3
2017-07-28T02:37:35.012Z,81.2
2017-07-28T02:38:36.386Z,81.6
2017-07-28T02:39:37.761Z,80.9
2017-07-28T02:40:39.137Z,81.3
2017-07-28T02:41:40.531Z,81.4
2017-07-28T02:42:41.911Z,82.0
2017-07-28T02:43:43.289Z,80.5
2017-07-28T02:44:44.669Z,80.9
2017-07-28T02:45:46.043Z,81.5
2017-07-28T02:46:47.423Z,80.8
2017-07-28T02:47:48.803Z,81.3
2017-07-28T02:48:50.197Z,80.6
2017-07-28T02:49:51.576Z,80.9
2017-07-28T02:50:52.959Z,81.0
2017-07-28T02:51:54.330Z,81.5
2017-07-28T02:53:36.720Z,80.5
2017-07-28T02:54:38.098Z,80.9
2017-07-28T02:55:39.481Z,80.9
2017-07-28T02:56:40.862Z,80.6
2017-07-28T02:57:42.236Z,81.5
2017-07-28T02:58:43.616Z,80.9
2017-07-28T02:59:44.995Z,80.6
2017-07-28T03:01:27.371Z,80.0
2017-07-28T03:02:28.744Z,80.0
2017-07-28T03:03:30.150Z,80.1
2017-07-28T03:04:31.532Z,80.7
2017-07-28T03:05:32.914Z,79.9
2017-07-28T03:06:34.292Z,80.1
2017-07-28T03:07:35.669Z,80.1
2017-07-28T03:08:37.044Z,79.6
2017-07-28T03:09:38.423Z,79.9
2017-07-28T03:11:20.816Z,79.3
2017-07-28T03:12:22.181Z,79.9
2017-07-28T03:13:23.555Z,79.9
2017-07-28T03:14:24.940Z,79.9
2017-07-28T03:15:26.307Z,80.2
2017-07-28T03:16:27.695Z,80.1
2017-07-28T03:17:29.076Z,80.0
2017-07-28T03:18:30.456Z,79.9
2017-07-28T03:19:31.828Z,80.0
2017-07-28T03:20:33.204Z,80.1
2017-07-28T03:21:34.580Z,79.6
2017-07-28T03:22:35.959Z,80.2
2017-07-28T03:23:37.339Z,80.0
2017-07-28T03:24:38.714Z,80.0
2017-07-28T03:25:40.106Z,80.2
2017-07-28T03:26:41.484Z,80.1
2017-07-28T03:27:42.865Z,80.1
2017-07-28T03:28:44.239Z,80.2
2017-07-28T03:29:45.628Z,80.6
2017-07-28T03:30:47.003Z,80.7
2017-07-28T03:32:28.379Z,80.8
2017-07-28T03:33:29.765Z,80.7
2017-07-28T03:34:52.764Z,80.6
2017-07-28T03:35:54.139Z,80.5
2017-07-28T03:36:55.519Z,80.5
2017-07-28T03:37:56.894Z,81.4
2017-07-28T03:38:58.273Z,81.4
2017-07-28T03:39:59.656Z,81.3
2017-07-28T03:41:01.036Z,81.3
2017-07-28T03:42:02.425Z,81.4
2017-07-28T03:43:03.799Z,81.3
2017-07-28T03:44:05.183Z,81.3
2017-07-28T03:45:06.562Z,81.1
2017-07-28T03:46:07.940Z,80.8
2017-07-28T03:47:09.328Z,81.6
2017-07-28T03:48:51.729Z,81.0
2017-07-28T03:49:53.111Z,81.3
2017-07-28T03:50:54.498Z,81.1
2017-07-28T03:51:55.877Z,81.2
2017-07-28T03:52:57.287Z,81.3
2017-07-28T03:53:58.669Z,81.1
2017-07-28T03:55:00.051Z,81.4
2017-07-28T03:56:01.431Z,81.2
2017-07-28T03:57:02.808Z,81.2
2017-07-28T03:58:45.178Z,81.2
2017-07-28T03:59:46.555Z,81.0
2017-07-28T04:00:47.936Z,80.9
2017-07-28T04:01:49.325Z,80.9
2017-07-28T04:02:50.706Z,81.5
2017-07-28T04:03:52.082Z,80.7
2017-07-28T04:04:53.466Z,80.7
2017-07-28T04:05:54.870Z,81.0
2017-07-28T04:06:56.249Z,80.9
2017-07-28T04:07:57.626Z,80.4
2017-07-28T04:08:59.006Z,80.9
2017-07-28T04:10:00.394Z,80.4
2017-07-28T04:11:01.783Z,80.5
2017-07-28T04:12:03.155Z,80.5
2017-07-28T04:13:04.539Z,79.6
2017-07-28T04:14:05.917Z,80.8
2017-07-28T04:15:07.298Z,80.5
2017-07-28T04:16:08.674Z,80.3
2017-07-28T04:17:10.061Z,80.0
2017-07-28T04:18:11.450Z,79.8
2017-07-28T04:19:12.833Z,80.0
2017-07-28T04:20:14.214Z,80.0
2017-07-28T04:21:15.596Z,79.5
2017-07-28T04:22:16.978Z,79.3
2017-07-28T04:23:59.368Z,79.0
2017-07-28T04:25:00.755Z,78.7
2017-07-28T04:26:02.136Z,78.6
2017-07-28T04:27:03.523Z,78.4
2017-07-28T04:28:04.907Z,78.0
2017-07-28T04:29:06.305Z,77.9
2017-07-28T04:30:07.671Z,77.6
2017-07-28T04:31:09.057Z,77.5
2017-07-28T04:32:10.456Z,77.6
2017-07-28T04:33:11.830Z,77.6
2017-07-28T04:34:13.213Z,77.3
2017-07-28T04:35:14.599Z,76.6
2017-07-28T04:36:56.990Z,76.3
2017-07-28T04:37:58.371Z,77.4
2017-07-28T04:38:59.756Z,76.9
2017-07-28T04:40:01.136Z,77.5
2017-07-28T04:41:03.017Z,77.3
2017-07-28T04:42:04.406Z,76.4
2017-07-28T04:43:05.793Z,76.3
2017-07-28T04:44:07.176Z,76.6
2017-07-28T04:45:08.556Z,76.6
2017-07-28T04:46:09.935Z,75.7
2017-07-28T04:47:11.323Z,75.9
2017-07-28T04:48:12.701Z,76.6
2017-07-28T04:49:14.098Z,76.2
2017-07-28T04:50:15.466Z,76.7
2017-07-28T04:51:16.853Z,75.9
2017-07-28T04:52:18.231Z,75.4
2017-07-28T04:53:19.632Z,74.8
2017-07-28T04:55:02.014Z,75.2
2017-07-28T04:56:03.395Z,74.5
2017-07-28T04:57:04.785Z,74.0
2017-07-28T04:58:06.162Z,73.9
2017-07-28T04:59:07.545Z,73.9
2017-07-28T05:00:08.929Z,73.7
2017-07-28T05:01:10.317Z,73.0
2017-07-28T05:02:11.704Z,72.9
2017-07-28T05:03:13.084Z,72.6
2017-07-28T05:04:14.485Z,72.3
2017-07-28T05:05:15.866Z,71.5
2017-07-28T05:06:58.261Z,71.4
2017-07-28T05:07:59.644Z,71.2
2017-07-28T05:09:01.024Z,71.6
2017-07-28T05:10:02.405Z,72.0
2017-07-28T05:11:03.827Z,71.4
2017-07-28T05:12:05.216Z,71.3
2017-07-28T05:13:06.599Z,70.8
2017-07-28T05:14:48.995Z,71.7
2017-07-28T05:15:50.387Z,71.4
2017-07-28T05:16:51.765Z,72.0
2017-07-28T05:17:53.144Z,70.8
2017-07-28T05:18:54.533Z,71.1
2017-07-28T05:19:55.918Z,71.7
2017-07-28T05:20:57.299Z,71.3
2017-07-28T05:21:58.687Z,71.4
2017-07-28T05:23:00.078Z,71.5
2017-07-28T05:24:01.496Z,71.4
2017-07-28T05:25:02.933Z,71.7
2017-07-28T05:26:04.364Z,71.8
2017-07-28T05:27:05.753Z,71.1
2017-07-28T05:28:07.140Z,71.4
2017-07-28T05:29:08.526Z,71.7
2017-07-28T05:30:09.911Z,70.0
2017-07-28T05:31:11.337Z,70.0
2017-07-28T05:32:12.749Z,70.3
2017-07-28T05:33:14.133Z,69.8
2017-07-28T05:34:15.526Z,70.8
2017-07-28T05:35:16.958Z,69.5
2017-07-28T05:36:18.390Z,68.4
2017-07-28T05:37:19.798Z,68.1
2017-07-28T05:38:21.220Z,67.4
2017-07-28T05:40:03.598Z,66.1
2017-07-28T05:41:04.994Z,66.2
2017-07-28T05:42:06.381Z,66.2
2017-07-28T05:43:07.762Z,66.3
2017-07-28T05:44:09.149Z,66.0
2017-07-28T05:45:10.547Z,65.5
2017-07-28T05:46:11.927Z,65.2
2017-07-28T05:47:13.348Z,66.3
2017-07-28T05:48:14.707Z,66.2
2017-07-28T05:49:16.105Z,67.1
2017-07-28T05:50:17.482Z,67.1
2017-07-28T05:51:59.865Z,67.9
2017-07-28T05:53:01.256Z,67.9
2017-07-28T05:54:02.638Z,68.4
2017-07-28T05:55:04.022Z,68.4
2017-07-28T05:56:05.455Z,68.2
2017-07-28T05:57:06.839Z,69.0
2017-07-28T05:58:08.225Z,68.3
2017-07-28T05:59:09.629Z,68.6
2017-07-28T06:00:11.000Z,68.9
2017-07-28T06:01:52.385Z,69.1
2017-07-28T06:02:53.769Z,68.9
2017-07-28T06:04:16.776Z,68.8
2017-07-28T06:05:18.157Z,69.4
2017-07-28T06:06:19.543Z,70.6
2017-07-28T06:07:20.928Z,70.5
2017-07-28T06:08:22.316Z,70.7
2017-07-28T06:09:23.701Z,70.4
2017-07-28T06:10:25.098Z,70.6
2017-07-28T06:12:07.494Z,69.4
2017-07-28T06:13:08.878Z,68.9
2017-07-28T06:14:10.263Z,68.9
2017-07-28T06:15:11.651Z,68.6
2017-07-28T06:16:13.035Z,68.2
2017-07-28T06:17:14.423Z,68.3
2017-07-28T06:18:15.827Z,67.4
2017-07-28T06:19:17.220Z,67.3
2017-07-28T06:20:18.608Z,66.4
2017-07-28T06:21:19.998Z,66.1
2017-07-28T06:22:21.384Z,65.4
2017-07-28T06:23:22.779Z,65.9
2017-07-28T06:24:24.171Z,65.4
2017-07-28T06:25:25.560Z,64.5
2017-07-28T06:26:26.949Z,64.6
2017-07-28T06:27:28.336Z,64.6
2017-07-28T06:28:29.723Z,63.9
2017-07-28T06:29:31.115Z,63.8
2017-07-28T06:30:32.504Z,64.0
2017-07-28T06:31:33.891Z,63.9
2017-07-28T06:32:35.281Z,63.3
2017-07-28T06:33:36.674Z,62.9
2017-07-28T06:34:38.058Z,64.1
2017-07-28T06:36:19.438Z,64.4
2017-07-28T06:37:20.828Z,63.9
2017-07-28T06:38:43.821Z,62.8
2017-07-28T06:39:45.210Z,63.3
2017-07-28T06:40:46.601Z,64.1
2017-07-28T06:41:47.985Z,62.2
2017-07-28T06:42:49.374Z,63.1
2017-07-28T06:43:50.762Z,62.8
2017-07-28T06:44:52.154Z,62.3
2017-07-28T06:45:53.551Z,62.6
2017-07-28T06:46:54.941Z,62.7
2017-07-28T06:47:56.328Z,62.6
2017-07-28T06:49:38.720Z,61.6
2017-07-28T06:50:40.123Z,62.6
2017-07-28T06:51:41.511Z,62.4
2017-07-28T06:52:42.898Z,62.9
2017-07-28T06:53:44.284Z,62.2
2017-07-28T06:54:45.692Z,63.0
2017-07-28T06:55:47.080Z,62.0
2017-07-28T06:56:48.468Z,62.4
2017-07-28T06:57:49.862Z,62.2
2017-07-28T06:58:51.241Z,61.6
2017-07-28T06:59:52.633Z,61.6
2017-07-28T07:00:54.028Z,62.5
2017-07-28T07:01:55.420Z,61.9
2017-07-28T07:02:56.828Z,62.6
2017-07-28T07:03:58.236Z,63.7
2017-07-28T07:05:40.632Z,63.3
2017-07-28T07:06:42.019Z,62.5
2017-07-28T07:07:43.412Z,63.1
2017-07-28T07:08:44.796Z,63.1
2017-07-28T07:09:46.215Z,62.6
2017-07-28T07:10:47.603Z,62.1
2017-07-28T07:11:48.998Z,62.5
2017-07-28T07:12:50.389Z,61.1
2017-07-28T07:13:51.777Z,62.0
2017-07-28T07:14:53.164Z,61.9
2017-07-28T07:15:54.538Z,61.0
2017-07-28T07:16:55.944Z,61.9
2017-07-28T07:17:57.334Z,60.8
2017-07-28T07:18:58.724Z,61.0
2017-07-28T07:20:00.124Z,61.3
2017-07-28T07:21:01.511Z,61.5
2017-07-28T07:22:02.899Z,61.9
2017-07-28T07:23:04.287Z,60.3
2017-07-28T07:24:05.700Z,61.4
2017-07-28T07:25:07.090Z,61.6
2017-07-28T07:26:08.479Z,61.2
2017-07-28T07:27:49.874Z,61.4
2017-07-28T07:28:51.263Z,60.8
2017-07-28T07:29:52.649Z,60.9
2017-07-28T07:30:54.035Z,60.7
2017-07-28T07:31:55.435Z,61.5
2017-07-28T07:32:56.815Z,62.5
2017-07-28T07:33:58.203Z,61.6
2017-07-28T07:34:59.600Z,62.3
2017-07-28T07:36:00.995Z,62.4
2017-07-28T07:37:02.380Z,62.6
2017-07-28T07:38:03.766Z,62.3
2017-07-28T07:39:05.164Z,62.7
2017-07-28T07:40:06.550Z,62.4
2017-07-28T07:41:07.942Z,61.7
2017-07-28T07:42:09.327Z,61.4
2017-07-28T07:43:10.719Z,61.8
2017-07-28T07:44:12.100Z,61.8
2017-07-28T07:45:13.491Z,61.6
2017-07-28T07:46:14.884Z,62.0
2017-07-28T07:47:16.270Z,61.0
2017-07-28T07:48:17.659Z,60.9
2017-07-28T07:49:19.050Z,59.8
2017-07-28T07:50:20.439Z,58.3
2017-07-28T07:52:02.816Z,58.8
2017-07-28T07:53:04.201Z,56.2
2017-07-28T07:54:05.592Z,56.3
2017-07-28T07:55:06.981Z,56.5
2017-07-28T07:56:08.373Z,55.7
2017-07-28T07:57:09.762Z,55.4
2017-07-28T07:58:11.151Z,55.1
2017-07-28T07:59:12.542Z,55.4
2017-07-28T08:00:13.928Z,55.6
2017-07-28T08:01:15.325Z,55.0
2017-07-28T08:02:16.718Z,55.2
2017-07-28T08:03:59.108Z,53.9
2017-07-28T08:05:00.508Z,54.0
2017-07-28T08:06:01.897Z,54.1
2017-07-28T08:07:03.288Z,54.6
2017-07-28T08:08:04.673Z,53.8
2017-07-28T08:09:06.068Z,54.5
2017-07-28T08:10:07.460Z,54.6
2017-07-28T08:11:08.852Z,55.1
2017-07-28T08:12:10.247Z,54.8
2017-07-28T08:13:11.638Z,54.8
2017-07-28T08:14:13.024Z,54.9
2017-07-28T08:15:14.416Z,55.7
2017-07-28T08:16:15.816Z,54.9
2017-07-28T08:17:17.204Z,55.6
2017-07-28T08:18:18.592Z,55.3
2017-07-28T08:19:19.980Z,54.6
2017-07-28T08:20:21.374Z,54.2
2017-07-28T08:21:22.761Z,53.8
2017-07-28T08:22:24.154Z,54.1
2017-07-28T08:23:25.549Z,52.0
2017-07-28T08:24:26.942Z,52.3
2017-07-28T08:25:28.333Z,52.4
2017-07-28T08:26:29.724Z,53.9
2017-07-28T08:27:31.113Z,54.1
2017-07-28T08:28:32.541Z,53.9
2017-07-28T08:29:33.932Z,53.4
2017-07-28T08:30:35.332Z,54.4
2017-07-28T08:31:36.735Z,54.1
2017-07-28T08:32:38.136Z,55.5
2017-07-28T08:33:39.515Z,55.4
2017-07-28T08:34:40.908Z,56.4
2017-07-28T08:35:42.294Z,56.6
2017-07-28T08:36:43.689Z,56.1
2017-07-28T08:37:45.087Z,55.6
2017-07-28T08:38:46.479Z,55.9
2017-07-28T08:39:47.876Z,55.6
2017-07-28T08:40:49.267Z,56.1
2017-07-28T08:41:50.663Z,56.2
2017-07-28T08:42:52.052Z,54.7
2017-07-28T08:43:53.446Z,55.4
2017-07-28T08:44:54.841Z,54.1
2017-07-28T08:45:56.235Z,54.4
2017-07-28T08:46:57.629Z,55.8
2017-07-28T08:47:59.015Z,55.6
2017-07-28T08:49:00.414Z,54.3
2017-07-28T08:50:01.810Z,53.8
2017-07-28T08:51:44.205Z,53.3
2017-07-28T08:52:45.597Z,53.8
2017-07-28T08:53:46.985Z,53.2
2017-07-28T08:54:48.376Z,53.9
2017-07-28T08:55:49.766Z,54.9
2017-07-28T08:56:51.161Z,53.9
2017-07-28T08:57:52.557Z,53.9
2017-07-28T08:58:53.946Z,52.9
2017-07-28T08:59:55.344Z,52.5
2017-07-28T09:00:56.729Z,51.1
2017-07-28T09:01:58.121Z,51.5
2017-07-28T09:02:59.511Z,50.8
2017-07-28T09:04:00.903Z,49.0
2017-07-28T09:05:02.297Z,47.4
2017-07-28T09:06:03.694Z,46.4
2017-07-28T09:07:46.082Z,46.5
2017-07-28T09:08:47.472Z,46.4
2017-07-28T09:09:48.866Z,45.7
2017-07-28T09:10:50.263Z,45.2
2017-07-28T09:11:51.667Z,46.1
2017-07-28T09:12:53.054Z,47.4
2017-07-28T09:13:54.450Z,46.8
2017-07-28T09:14:55.871Z,47.5
2017-07-28T09:15:57.240Z,46.8
2017-07-28T09:16:58.635Z,47.0
2017-07-28T09:18:00.040Z,47.5
2017-07-28T09:19:01.442Z,47.0
2017-07-28T09:20:02.832Z,46.8
2017-07-28T09:21:04.220Z,46.4
2017-07-28T09:22:05.646Z,47.0
2017-07-28T09:23:07.039Z,47.5
2017-07-28T09:24:08.429Z,47.1
2017-07-28T09:25:09.842Z,46.9
2017-07-28T09:26:11.214Z,47.6
2017-07-28T09:27:12.608Z,46.9
2017-07-28T09:28:14.003Z,48.6
2017-07-28T09:29:15.403Z,48.3
2017-07-28T09:30:16.816Z,48.1
2017-07-28T09:31:59.210Z,48.2
2017-07-28T09:33:00.633Z,48.1
2017-07-28T09:34:02.028Z,47.3
2017-07-28T09:35:03.421Z,48.1
2017-07-28T09:36:05.295Z,47.5
2017-07-28T09:37:06.688Z,46.1
2017-07-28T09:38:08.085Z,45.4
2017-07-28T09:39:09.482Z,44.3
2017-07-28T09:40:10.877Z,45.1
2017-07-28T09:41:12.267Z,43.9
2017-07-28T09:42:13.664Z,43.5
2017-07-28T09:43:15.067Z,43.2
2017-07-28T09:44:56.483Z,42.8
2017-07-28T09:45:57.864Z,43.6
2017-07-28T09:47:20.910Z,43.2
2017-07-28T09:48:22.301Z,42.3
2017-07-28T09:49:23.694Z,41.5
2017-07-28T09:50:25.092Z,43.0
2017-07-28T09:51:26.490Z,44.4
2017-07-28T09:52:27.886Z,43.9
2017-07-28T09:53:29.280Z,44.5
2017-07-28T09:54:30.675Z,44.5
2017-07-28T09:55:32.071Z,44.2
2017-07-28T09:56:33.463Z,44.5
2017-07-28T09:57:34.858Z,44.9
2017-07-28T09:58:36.250Z,44.9
2017-07-28T09:59:37.648Z,45.4
2017-07-28T10:00:39.043Z,46.3
2017-07-28T10:01:40.478Z,46.4
2017-07-28T10:02:41.855Z,46.9
2017-07-28T10:03:43.250Z,46.2
2017-07-28T10:04:44.643Z,46.1
2017-07-28T10:05:46.041Z,45.7
2017-07-28T10:06:47.435Z,46.5
2017-07-28T10:07:48.829Z,45.9
2017-07-28T10:08:50.221Z,45.9
2017-07-28T10:09:51.613Z,46.5
2017-07-28T10:10:53.002Z,46.8
2017-07-28T10:11:54.395Z,47.3
2017-07-28T10:12:55.792Z,47.0
2017-07-28T10:13:57.178Z,46.4
2017-07-28T10:14:58.568Z,46.1
2017-07-28T10:15:59.963Z,46.8
2017-07-28T10:17:01.357Z,47.2
2017-07-28T10:18:02.749Z,47.8
2017-07-28T10:19:04.136Z,46.9
2017-07-28T10:20:05.534Z,46.0
2017-07-28T10:21:06.925Z,44.4
2017-07-28T10:22:08.325Z,45.1
2017-07-28T10:23:09.708Z,46.0
2017-07-28T10:24:11.106Z,46.3
2017-07-28T10:25:12.493Z,46.5
2017-07-28T10:26:13.886Z,45.8
2017-07-28T10:27:15.274Z,46.3
2017-07-28T10:28:16.673Z,46.9
2017-07-28T10:29:18.073Z,46.6
2017-07-28T10:30:19.464Z,44.5
2017-07-28T10:31:20.882Z,43.5
2017-07-28T10:32:22.275Z,41.7
2017-07-28T10:33:23.665Z,41.3
2017-07-28T10:34:25.090Z,41.1
2017-07-28T10:35:26.489Z,43.1
2017-07-28T10:37:08.884Z,39.5
2017-07-28T10:38:10.275Z,37.2
2017-07-28T10:39:11.672Z,37.7
2017-07-28T10:40:13.065Z,35.4
2017-07-28T10:41:14.467Z,35.5
2017-07-28T10:42:15.880Z,35.2
2017-07-28T10:43:17.287Z,32.8
2017-07-28T10:44:18.686Z,33.0
2017-07-28T10:45:20.104Z,34.2
2017-07-28T10:46:21.500Z,34.4
2017-07-28T10:47:22.897Z,35.3
2017-07-28T10:48:24.297Z,33.4
2017-07-28T10:49:25.709Z,32.9
2017-07-28T10:50:27.106Z,32.5
2017-07-28T10:51:28.505Z,34.3
2017-07-28T10:52:29.900Z,32.8
2017-07-28T10:53:31.307Z,34.3
2017-07-28T10:54:32.710Z,36.5
2017-07-28T10:55:34.106Z,35.1
2017-07-28T10:56:35.505Z,33.1
2017-07-28T10:57:36.905Z,33.8
2017-07-28T10:58:38.309Z,33.3
2017-07-28T10:59:39.704Z,32.6
2017-07-28T11:00:41.103Z,33.5
2017-07-28T11:01:42.502Z,32.9
2017-07-28T11:02:43.903Z,32.1
2017-07-28T11:03:45.315Z,30.7
2017-07-28T11:04:46.721Z,30.7
2017-07-28T11:05:48.122Z,30.7
2017-07-28T11:06:49.520Z,30.5
2017-07-28T11:07:50.930Z,30.6
2017-07-28T11:08:52.326Z,29.0
2017-07-28T11:09:53.729Z,28.7
2017-07-28T11:10:55.132Z,30.0
2017-07-28T11:11:56.541Z,30.8
2017-07-28T11:12:57.944Z,29.4
2017-07-28T11:13:59.347Z,26.6
2017-07-28T11:15:00.763Z,26.6
2017-07-28T11:16:02.161Z,25.5
2017-07-28T11:17:03.568Z,25.7
2017-07-28T11:18:04.995Z,25.7
2017-07-28T11:19:06.395Z,23.7
2017-07-28T11:20:07.802Z,24.7
2017-07-28T11:21:09.202Z,26.4
2017-07-28T11:22:10.604Z,24.9
2017-07-28T11:23:12.022Z,26.3
2017-07-28T11:24:13.416Z,27.4
2017-07-28T11:25:55.818Z,28.9
2017-07-28T11:26:57.218Z,29.2
2017-07-28T11:27:58.615Z,29.8
2017-07-28T11:29:00.016Z,30.1
2017-07-28T11:30:01.419Z,31.4
2017-07-28T11:31:02.817Z,31.7
2017-07-28T11:32:04.220Z,32.0
2017-07-28T11:33:05.617Z,33.2
2017-07-28T11:34:07.015Z,33.2
2017-07-28T11:35:08.439Z,34.2
2017-07-28T11:36:09.828Z,35.1
2017-07-28T11:37:11.224Z,35.9
2017-07-28T11:38:53.642Z,35.6
2017-07-28T11:39:55.037Z,36.5
2017-07-28T11:40:56.434Z,36.8
2017-07-28T11:41:57.827Z,37.7
2017-07-28T11:42:59.229Z,37.9
2017-07-28T11:44:00.633Z,39.5
2017-07-28T11:45:02.032Z,38.8
2017-07-28T11:46:03.438Z,38.3
2017-07-28T11:47:04.833Z,39.1
2017-07-28T11:48:06.228Z,38.7
2017-07-28T11:49:07.623Z,39.6
2017-07-28T11:50:09.015Z,40.5
2017-07-28T11:51:10.403Z,39.8
2017-07-28T11:52:11.805Z,40.1
2017-07-28T11:53:13.196Z,40.6
2017-07-28T11:54:14.592Z,40.6
2017-07-28T11:55:15.990Z,41.2
2017-07-28T11:56:17.383Z,40.8
2017-07-28T11:57:18.776Z,40.8
2017-07-28T11:58:20.175Z,42.1
2017-07-28T11:59:21.572Z,42.2
2017-07-28T12:00:22.969Z,41.9
2017-07-28T12:01:24.353Z,41.3
2017-07-28T12:02:25.755Z,41.9
2017-07-28T12:03:27.133Z,41.6
2017-07-28T12:04:28.524Z,40.8
2017-07-28T12:05:29.941Z,41.2
2017-07-28T12:06:31.312Z,40.8
2017-07-28T12:07:32.701Z,40.6
2017-07-28T12:08:34.095Z,41.3
2017-07-28T12:09:35.497Z,40.5
2017-07-28T12:10:36.891Z,40.6
2017-07-28T12:11:38.283Z,41.1
2017-07-28T12:12:39.677Z,41.4
2017-07-28T12:13:41.068Z,42.2
2017-07-28T12:14:42.459Z,41.5
2017-07-28T12:15:43.847Z,41.6
2017-07-28T12:16:45.228Z,41.5
2017-07-28T12:17:46.629Z,41.1
2017-07-28T12:18:48.021Z,41.5
2017-07-28T12:19:49.410Z,42.8
2017-07-28T12:20:50.801Z,42.4
2017-07-28T12:21:52.196Z,41.5
2017-07-28T12:22:53.584Z,42.8
2017-07-28T12:23:54.974Z,43.3
2017-07-28T12:24:56.370Z,45.0
2017-07-28T12:25:57.749Z,43.9
2017-07-28T12:27:40.161Z,44.0
2017-07-28T12:28:41.547Z,44.5
2017-07-28T12:29:42.933Z,44.5
2017-07-28T12:30:44.323Z,44.5
2017-07-28T12:31:45.744Z,44.5
2017-07-28T12:32:47.133Z,43.2
2017-07-28T12:33:48.527Z,42.7
2017-07-28T12:34:49.920Z,41.0
2017-07-28T12:36:31.309Z,40.3
2017-07-28T12:37:32.701Z,39.6
2017-07-28T12:38:34.095Z,38.9
2017-07-28T12:39:35.494Z,36.3
2017-07-28T12:40:36.885Z,36.8
2017-07-28T12:41:38.280Z,36.8
2017-07-28T12:42:39.676Z,35.5
2017-07-28T12:43:41.081Z,35.0
2017-07-28T12:44:42.469Z,34.1
2017-07-28T12:45:43.869Z,33.4
2017-07-28T12:46:45.267Z,32.5
2017-07-28T12:47:46.664Z,32.7
2017-07-28T12:48:48.064Z,33.2
2017-07-28T12:49:49.462Z,32.2
2017-07-28T12:50:50.867Z,32.1
2017-07-28T12:51:52.270Z,31.4
2017-07-28T12:52:53.665Z,31.8
2017-07-28T12:53:55.062Z,30.5
2017-07-28T12:54:56.462Z,30.6
2017-07-28T12:55:57.862Z,28.9
2017-07-28T12:56:59.264Z,29.3
2017-07-28T12:58:00.665Z,28.6
2017-07-28T12:59:02.061Z,27.8
2017-07-28T13:00:03.457Z,28.0
2017-07-28T13:01:04.862Z,29.6
2017-07-28T13:02:06.274Z,31.2
2017-07-28T13:03:07.665Z,31.2
2017-07-28T13:04:09.064Z,32.8
2017-07-28T13:05:10.472Z,32.5
2017-07-28T13:06:11.872Z,34.0
2017-07-28T13:07:13.269Z,31.1
2017-07-28T13:08:14.670Z,30.8
2017-07-28T13:09:57.071Z,31.5
2017-07-28T13:10:58.470Z,29.1
2017-07-28T13:11:59.865Z,29.0
2017-07-28T13:13:01.265Z,28.1
2017-07-28T13:14:02.668Z,27.8
2017-07-28T13:15:04.070Z,27.6
2017-07-28T13:16:05.472Z,27.8
2017-07-28T13:17:06.878Z,28.9
2017-07-28T13:18:08.267Z,27.7
2017-07-28T13:19:09.678Z,27.7
2017-07-28T13:20:11.078Z,29.3
2017-07-28T13:21:12.493Z,28.6
2017-07-28T13:22:13.871Z,29.6
2017-07-28T13:23:15.269Z,30.1
2017-07-28T13:24:16.675Z,31.6
2017-07-28T13:25:18.071Z,31.8
2017-07-28T13:26:19.464Z,31.3
2017-07-28T13:27:20.864Z,32.2
2017-07-28T13:29:03.276Z,33.7
2017-07-28T13:30:04.671Z,34.0
2017-07-28T13:31:06.071Z,35.3
2017-07-28T13:32:07.467Z,35.4
2017-07-28T13:33:08.863Z,36.4
2017-07-28T13:34:10.256Z,36.3
2017-07-28T13:35:11.654Z,38.0
2017-07-28T13:36:13.046Z,38.2
2017-07-28T13:37:14.441Z,38.6
2017-07-28T13:38:15.847Z,39.9
2017-07-28T13:39:17.229Z,39.5
2017-07-28T13:40:18.620Z,41.4
2017-07-28T13:41:20.012Z,41.6
2017-07-28T13:42:21.415Z,42.1
2017-07-28T13:43:22.815Z,41.8
2017-07-28T13:44:24.203Z,41.3
2017-07-28T13:45:25.614Z,41.0
2017-07-28T13:46:27.016Z,41.1
2017-07-28T13:47:28.394Z,41.9
2017-07-28T13:48:29.786Z,42.7
2017-07-28T13:50:12.184Z,42.6
2017-07-28T13:51:13.577Z,41.6
2017-07-28T13:52:14.964Z,41.8
2017-07-28T13:53:16.390Z,41.6
2017-07-28T13:54:17.778Z,41.5
2017-07-28T13:55:19.169Z,41.8
2017-07-28T13:56:20.572Z,40.8
2017-07-28T13:58:02.937Z,40.6
2017-07-28T13:59:04.323Z,41.3
2017-07-28T14:00:05.712Z,41.0
2017-07-28T14:01:07.108Z,41.2
2017-07-28T14:02:08.497Z,41.2
2017-07-28T14:03:09.886Z,41.3
2017-07-28T14:04:11.275Z,41.5
2017-07-28T14:05:12.663Z,41.4
2017-07-28T14:06:14.052Z,42.1